Hauptseite
Satellitenwetter 10-Tage PrognosenKlimaSeewetter Wirbelstürme Blitz FlughäfenFAQ Newsletter Über uns
Wetter : Europa Afrika Nordamerika Südamerika Asien Australien-Ozeanien Andere
Sprachen Kontakt

Stuttgart, Deutschland

Flughafen Stuttgart

Breite: 48-41N, Länge: 009-13E, Höhe: 396 m


METAR: EDDS 300750Z 26001KT CAVOK 23/16 Q1022 NOSIG
TAF: EDDS 300500Z 3006/0106 VRB03KT CAVOK BECMG 3009/3011 03005KT BECMG 3019/3021 VRB03KT

Zeit: 10:19 (08:19 UTC)

Beobachtung

Neuester Wetterbericht von vor 29 Minuten, um 07:50 UTC
Wind 1 kt aus West
Temperatur 23°C
Luftfeuchtigkeit 65%
Luftdruck 1022 hPa
Sichtweite 10 km oder mehr
keine Wolken unter 1500 m und keine Kumulonimbus oder Gewitterwolken

Maßeinheiten ändern

Prognose

Neuester Wetterbericht von vor 3 Stunden und 19 Minuten, um 05:00 UTC
Gültige Prognose vom 30 um 06 UTC bis 01 um 06 UTC
Wind 3 kt aus unterschiedlichen Richtungen
Sichtweite 10 km oder mehr
keine Wolken unter 1500 m und keine Kumulonimbus oder Gewitterwolken
Übergehend zu
vom 30 um 09 UTC bis 30 um 11 UTC
Wind 5 kt aus Nord/Nordost
Übergehend zu
vom 30 um 19 UTC bis 30 um 21 UTC
Wind 3 kt aus unterschiedlichen Richtungen
Die Angaben auf diesen Webseiten unterliegen einer Erklärung über den Haftungsausschluss
Wetter : Europa Afrika Nordamerika Südamerika Asien Australien-Ozeanien Andere
Satellitenwetter 10-Tage PrognosenKlimaSeewetter Wirbelstürme Blitz FlughäfenFAQ Sprachen Kontakt Newsletter Über uns